sensor_id;sensor_type;location;lat;lon;timestamp;pressure;altitude;pressure_sealevel;temperature;humidity
74065;BME280;62421;51.412;5.432;2022-10-31T00:02:19;101949.00;;;11.75;100.00
74065;BME280;62421;51.412;5.432;2022-10-31T00:04:45;101948.28;;;11.71;100.00
74065;BME280;62421;51.412;5.432;2022-10-31T00:07:10;101947.78;;;11.64;100.00
74065;BME280;62421;51.412;5.432;2022-10-31T00:09:35;101950.72;;;11.60;100.00
74065;BME280;62421;51.412;5.432;2022-10-31T00:12:00;101947.25;;;11.58;100.00
74065;BME280;62421;51.412;5.432;2022-10-31T00:14:26;101938.56;;;11.53;100.00
74065;BME280;62421;51.412;5.432;2022-10-31T00:16:51;101944.91;;;11.52;100.00
74065;BME280;62421;51.412;5.432;2022-10-31T00:19:16;101944.13;;;11.50;100.00
74065;BME280;62421;51.412;5.432;2022-10-31T00:21:42;101945.25;;;11.45;100.00
74065;BME280;62421;51.412;5.432;2022-10-31T00:24:07;101945.44;;;11.42;100.00
74065;BME280;62421;51.412;5.432;2022-10-31T00:26:33;101941.88;;;11.42;100.00
74065;BME280;62421;51.412;5.432;2022-10-31T00:28:59;101942.91;;;11.39;100.00
74065;BME280;62421;51.412;5.432;2022-10-31T00:31:24;101945.69;;;11.38;100.00
74065;BME280;62421;51.412;5.432;2022-10-31T00:33:50;101949.41;;;11.35;100.00
74065;BME280;62421;51.412;5.432;2022-10-31T00:36:17;101939.78;;;11.31;100.00
74065;BME280;62421;51.412;5.432;2022-10-31T00:38:43;101937.19;;;11.30;100.00
74065;BME280;62421;51.412;5.432;2022-10-31T00:41:10;101933.81;;;11.26;100.00
74065;BME280;62421;51.412;5.432;2022-10-31T00:43:35;101923.22;;;11.23;100.00
74065;BME280;62421;51.412;5.432;2022-10-31T00:46:01;101930.41;;;11.22;100.00
74065;BME280;62421;51.412;5.432;2022-10-31T00:48:26;101934.06;;;11.21;100.00
74065;BME280;62421;51.412;5.432;2022-10-31T00:50:51;101931.44;;;11.20;100.00
74065;BME280;62421;51.412;5.432;2022-10-31T00:53:17;101937.00;;;11.17;100.00
74065;BME280;62421;51.412;5.432;2022-10-31T00:55:42;101929.97;;;11.14;100.00
74065;BME280;62421;51.412;5.432;2022-10-31T00:58:07;101924.69;;;11.13;100.00
74065;BME280;62421;51.412;5.432;2022-10-31T01:00:33;101931.00;;;11.12;100.00
74065;BME280;62421;51.412;5.432;2022-10-31T01:02:58;101943.44;;;11.14;100.00
74065;BME280;62421;51.412;5.432;2022-10-31T01:05:23;101948.69;;;11.16;100.00
74065;BME280;62421;51.412;5.432;2022-10-31T01:07:49;101928.22;;;11.13;100.00
74065;BME280;62421;51.412;5.432;2022-10-31T01:10:14;101920.34;;;11.10;100.00
74065;BME280;62421;51.412;5.432;2022-10-31T01:12:44;101917.81;;;11.07;100.00
74065;BME280;62421;51.412;5.432;2022-10-31T01:15:12;101916.97;;;11.06;100.00
74065;BME280;62421;51.412;5.432;2022-10-31T01:17:38;101917.13;;;11.03;100.00
74065;BME280;62421;51.412;5.432;2022-10-31T01:20:05;101916.25;;;11.03;100.00
74065;BME280;62421;51.412;5.432;2022-10-31T01:22:31;101911.06;;;11.00;100.00
74065;BME280;62421;51.412;5.432;2022-10-31T01:24:57;101925.69;;;10.94;100.00
74065;BME280;62421;51.412;5.432;2022-10-31T01:27:22;101927.69;;;10.91;100.00
74065;BME280;62421;51.412;5.432;2022-10-31T01:29:48;101931.38;;;10.88;100.00
74065;BME280;62421;51.412;5.432;2022-10-31T01:32:13;101925.22;;;10.86;100.00
74065;BME280;62421;51.412;5.432;2022-10-31T01:34:38;101932.50;;;10.84;100.00
74065;BME280;62421;51.412;5.432;2022-10-31T01:37:03;101929.13;;;10.80;100.00
74065;BME280;62421;51.412;5.432;2022-10-31T01:39:29;101923.03;;;10.77;100.00
74065;BME280;62421;51.412;5.432;2022-10-31T01:41:54;101934.75;;;10.76;100.00
74065;BME280;62421;51.412;5.432;2022-10-31T01:49:17;101935.00;;;10.71;100.00
74065;BME280;62421;51.412;5.432;2022-10-31T01:52:14;101929.00;;;10.66;100.00
74065;BME280;62421;51.412;5.432;2022-10-31T01:54:46;101928.44;;;10.59;100.00
74065;BME280;62421;51.412;5.432;2022-10-31T01:57:14;101919.78;;;10.54;100.00
74065;BME280;62421;51.412;5.432;2022-10-31T01:59:43;101929.72;;;10.52;100.00
74065;BME280;62421;51.412;5.432;2022-10-31T02:02:10;101925.28;;;10.51;100.00
74065;BME280;62421;51.412;5.432;2022-10-31T02:04:36;101924.50;;;10.49;100.00
74065;BME280;62421;51.412;5.432;2022-10-31T02:07:27;101917.41;;;10.48;100.00
74065;BME280;62421;51.412;5.432;2022-10-31T02:09:53;101924.69;;;10.46;100.00
74065;BME280;62421;51.412;5.432;2022-10-31T02:12:20;101913.28;;;10.41;100.00
74065;BME280;62421;51.412;5.432;2022-10-31T02:14:46;101903.59;;;10.38;100.00
74065;BME280;62421;51.412;5.432;2022-10-31T02:17:12;101905.59;;;10.35;100.00
74065;BME280;62421;51.412;5.432;2022-10-31T02:19:52;101913.00;;;10.30;100.00
74065;BME280;62421;51.412;5.432;2022-10-31T02:30:07;101919.84;;;10.18;100.00
74065;BME280;62421;51.412;5.432;2022-10-31T02:35:53;101920.22;;;10.10;100.00
74065;BME280;62421;51.412;5.432;2022-10-31T02:44:16;101921.50;;;10.03;100.00
74065;BME280;62421;51.412;5.432;2022-10-31T02:46:48;101916.19;;;10.01;100.00
74065;BME280;62421;51.412;5.432;2022-10-31T02:49:43;101908.06;;;10.03;100.00
74065;BME280;62421;51.412;5.432;2022-10-31T02:52:19;101912.34;;;10.07;100.00
74065;BME280;62421;51.412;5.432;2022-10-31T02:54:46;101908.69;;;10.08;100.00
74065;BME280;62421;51.412;5.432;2022-10-31T02:57:12;101907.84;;;10.08;100.00
74065;BME280;62421;51.412;5.432;2022-10-31T02:59:40;101899.84;;;10.06;100.00
74065;BME280;62421;51.412;5.432;2022-10-31T03:02:27;101902.47;;;10.08;100.00
74065;BME280;62421;51.412;5.432;2022-10-31T03:08:21;101903.19;;;10.11;100.00
74065;BME280;62421;51.412;5.432;2022-10-31T03:11:01;101898.75;;;10.10;100.00
74065;BME280;62421;51.412;5.432;2022-10-31T03:16:51;101895.59;;;10.02;100.00
74065;BME280;62421;51.412;5.432;2022-10-31T03:19:27;101904.75;;;9.98;100.00
74065;BME280;62421;51.412;5.432;2022-10-31T03:22:15;101904.13;;;9.93;100.00
74065;BME280;62421;51.412;5.432;2022-10-31T03:24:42;101898.25;;;9.84;100.00
74065;BME280;62421;51.412;5.432;2022-10-31T03:27:10;101901.41;;;9.75;100.00
74065;BME280;62421;51.412;5.432;2022-10-31T03:29:39;101900.00;;;9.68;100.00
74065;BME280;62421;51.412;5.432;2022-10-31T03:32:13;101896.75;;;9.61;100.00
74065;BME280;62421;51.412;5.432;2022-10-31T03:34:41;101897.03;;;9.55;100.00
74065;BME280;62421;51.412;5.432;2022-10-31T03:37:10;101891.13;;;9.49;100.00
74065;BME280;62421;51.412;5.432;2022-10-31T03:39:38;101891.25;;;9.46;100.00
74065;BME280;62421;51.412;5.432;2022-10-31T03:42:08;101895.97;;;9.40;100.00
74065;BME280;62421;51.412;5.432;2022-10-31T03:44:35;101899.59;;;9.39;100.00
74065;BME280;62421;51.412;5.432;2022-10-31T03:47:01;101888.84;;;9.39;100.00
74065;BME280;62421;51.412;5.432;2022-10-31T03:49:28;101887.13;;;9.38;100.00
74065;BME280;62421;51.412;5.432;2022-10-31T03:51:55;101897.91;;;9.37;100.00
74065;BME280;62421;51.412;5.432;2022-10-31T03:54:32;101892.72;;;9.34;100.00
74065;BME280;62421;51.412;5.432;2022-10-31T03:57:32;101894.59;;;9.32;100.00
74065;BME280;62421;51.412;5.432;2022-10-31T04:00:06;101899.25;;;9.28;100.00
74065;BME280;62421;51.412;5.432;2022-10-31T04:02:35;101894.97;;;9.24;100.00
74065;BME280;62421;51.412;5.432;2022-10-31T04:05:04;101892.44;;;9.21;100.00
74065;BME280;62421;51.412;5.432;2022-10-31T04:07:33;101902.38;;;9.19;100.00
74065;BME280;62421;51.412;5.432;2022-10-31T04:10:02;101898.81;;;9.18;100.00
74065;BME280;62421;51.412;5.432;2022-10-31T04:12:30;101902.50;;;9.16;100.00
74065;BME280;62421;51.412;5.432;2022-10-31T04:14:58;101905.16;;;9.16;100.00
74065;BME280;62421;51.412;5.432;2022-10-31T04:17:27;101903.44;;;9.15;100.00
74065;BME280;62421;51.412;5.432;2022-10-31T04:19:54;101896.06;;;9.20;100.00
74065;BME280;62421;51.412;5.432;2022-10-31T04:22:19;101910.97;;;9.26;100.00
74065;BME280;62421;51.412;5.432;2022-10-31T04:24:45;101913.44;;;9.30;100.00
74065;BME280;62421;51.412;5.432;2022-10-31T04:27:10;101901.75;;;9.31;100.00
74065;BME280;62421;51.412;5.432;2022-10-31T04:29:36;101912.47;;;9.31;100.00
74065;BME280;62421;51.412;5.432;2022-10-31T04:32:01;101908.00;;;9.32;100.00
74065;BME280;62421;51.412;5.432;2022-10-31T04:34:26;101902.66;;;9.32;100.00
74065;BME280;62421;51.412;5.432;2022-10-31T04:36:52;101912.34;;;9.34;100.00
74065;BME280;62421;51.412;5.432;2022-10-31T04:39:17;101910.53;;;9.35;100.00
74065;BME280;62421;51.412;5.432;2022-10-31T04:41:42;101904.25;;;9.36;100.00
74065;BME280;62421;51.412;5.432;2022-10-31T04:44:07;101906.03;;;9.35;100.00
74065;BME280;62421;51.412;5.432;2022-10-31T04:46:33;101909.50;;;9.37;100.00
74065;BME280;62421;51.412;5.432;2022-10-31T04:48:58;101901.47;;;9.37;100.00
74065;BME280;62421;51.412;5.432;2022-10-31T04:51:23;101900.53;;;9.38;100.00
74065;BME280;62421;51.412;5.432;2022-10-31T04:53:49;101900.47;;;9.40;100.00
74065;BME280;62421;51.412;5.432;2022-10-31T04:56:14;101896.78;;;9.42;100.00
74065;BME280;62421;51.412;5.432;2022-10-31T04:58:39;101894.09;;;9.42;100.00
74065;BME280;62421;51.412;5.432;2022-10-31T05:01:05;101895.00;;;9.41;100.00
74065;BME280;62421;51.412;5.432;2022-10-31T05:03:30;101901.34;;;9.40;100.00
74065;BME280;62421;51.412;5.432;2022-10-31T05:05:55;101898.66;;;9.40;100.00
74065;BME280;62421;51.412;5.432;2022-10-31T05:08:21;101894.22;;;9.39;100.00
74065;BME280;62421;51.412;5.432;2022-10-31T05:10:46;101891.69;;;9.36;100.00
74065;BME280;62421;51.412;5.432;2022-10-31T05:13:11;101899.81;;;9.35;100.00
74065;BME280;62421;51.412;5.432;2022-10-31T05:15:36;101892.00;;;9.30;100.00
74065;BME280;62421;51.412;5.432;2022-10-31T05:18:02;101892.22;;;9.26;100.00
74065;BME280;62421;51.412;5.432;2022-10-31T05:20:29;101895.13;;;9.21;100.00
74065;BME280;62421;51.412;5.432;2022-10-31T05:22:56;101892.56;;;9.18;100.00
74065;BME280;62421;51.412;5.432;2022-10-31T05:25:23;101890.91;;;9.15;100.00
74065;BME280;62421;51.412;5.432;2022-10-31T05:27:50;101879.56;;;9.10;100.00
74065;BME280;62421;51.412;5.432;2022-10-31T05:30:21;101879.78;;;9.06;100.00
74065;BME280;62421;51.412;5.432;2022-10-31T05:32:49;101879.91;;;9.02;100.00
74065;BME280;62421;51.412;5.432;2022-10-31T05:35:26;101884.53;;;8.99;100.00
74065;BME280;62421;51.412;5.432;2022-10-31T05:37:52;101882.97;;;8.95;100.00
74065;BME280;62421;51.412;5.432;2022-10-31T05:40:18;101880.47;;;8.90;100.00
74065;BME280;62421;51.412;5.432;2022-10-31T05:42:44;101873.38;;;8.89;100.00
74065;BME280;62421;51.412;5.432;2022-10-31T05:45:12;101881.44;;;8.89;100.00
74065;BME280;62421;51.412;5.432;2022-10-31T05:47:38;101883.25;;;8.89;100.00
74065;BME280;62421;51.412;5.432;2022-10-31T05:50:05;101874.47;;;8.85;100.00
74065;BME280;62421;51.412;5.432;2022-10-31T05:52:31;101871.94;;;8.82;100.00
74065;BME280;62421;51.412;5.432;2022-10-31T05:54:57;101872.00;;;8.80;100.00
74065;BME280;62421;51.412;5.432;2022-10-31T05:57:22;101860.56;;;8.77;100.00
74065;BME280;62421;51.412;5.432;2022-10-31T05:59:47;101866.06;;;8.74;100.00
74065;BME280;62421;51.412;5.432;2022-10-31T06:02:13;101864.41;;;8.71;100.00
74065;BME280;62421;51.412;5.432;2022-10-31T06:04:38;101870.75;;;8.69;100.00
74065;BME280;62421;51.412;5.432;2022-10-31T06:07:03;101869.88;;;8.68;100.00
74065;BME280;62421;51.412;5.432;2022-10-31T06:09:29;101860.19;;;8.66;100.00
74065;BME280;62421;51.412;5.432;2022-10-31T06:11:54;101853.25;;;8.61;100.00
74065;BME280;62421;51.412;5.432;2022-10-31T06:14:19;101865.81;;;8.59;100.00
74065;BME280;62421;51.412;5.432;2022-10-31T06:16:45;101848.91;;;8.59;100.00
74065;BME280;62421;51.412;5.432;2022-10-31T06:19:10;101865.81;;;8.59;100.00
74065;BME280;62421;51.412;5.432;2022-10-31T06:21:35;101862.22;;;8.60;100.00
74065;BME280;62421;51.412;5.432;2022-10-31T06:24:01;101849.75;;;8.59;100.00
74065;BME280;62421;51.412;5.432;2022-10-31T06:26:26;101856.88;;;8.60;100.00
74065;BME280;62421;51.412;5.432;2022-10-31T06:28:51;101860.41;;;8.61;100.00
74065;BME280;62421;51.412;5.432;2022-10-31T06:31:16;101864.75;;;8.64;100.00
74065;BME280;62421;51.412;5.432;2022-10-31T06:33:42;101865.50;;;8.67;100.00
74065;BME280;62421;51.412;5.432;2022-10-31T06:36:08;101867.09;;;8.71;100.00
74065;BME280;62421;51.412;5.432;2022-10-31T06:38:34;101869.56;;;8.76;100.00
74065;BME280;62421;51.412;5.432;2022-10-31T06:41:03;101865.84;;;8.78;100.00
74065;BME280;62421;51.412;5.432;2022-10-31T06:43:29;101875.53;;;8.81;100.00
74065;BME280;62421;51.412;5.432;2022-10-31T06:45:54;101861.25;;;8.82;100.00
74065;BME280;62421;51.412;5.432;2022-10-31T06:48:19;101862.16;;;8.81;100.00
74065;BME280;62421;51.412;5.432;2022-10-31T06:50:45;101861.25;;;8.82;100.00
74065;BME280;62421;51.412;5.432;2022-10-31T06:53:10;101865.47;;;8.86;100.00
74065;BME280;62421;51.412;5.432;2022-10-31T06:55:35;101870.84;;;8.86;100.00
74065;BME280;62421;51.412;5.432;2022-10-31T06:58:01;101859.13;;;8.89;100.00
74065;BME280;62421;51.412;5.432;2022-10-31T07:00:28;101863.47;;;8.91;100.00
74065;BME280;62421;51.412;5.432;2022-10-31T07:03:20;101858.06;;;8.93;100.00
74065;BME280;62421;51.412;5.432;2022-10-31T07:05:46;101860.50;;;8.97;100.00
74065;BME280;62421;51.412;5.432;2022-10-31T07:08:13;101855.78;;;9.02;100.00
74065;BME280;62421;51.412;5.432;2022-10-31T07:10:40;101859.19;;;9.06;100.00
74065;BME280;62421;51.412;5.432;2022-10-31T07:13:09;101861.72;;;9.09;100.00
74065;BME280;62421;51.412;5.432;2022-10-31T07:15:37;101857.09;;;9.13;100.00
74065;BME280;62421;51.412;5.432;2022-10-31T07:18:04;101862.22;;;9.17;100.00
74065;BME280;62421;51.412;5.432;2022-10-31T07:20:30;101855.84;;;9.20;100.00
74065;BME280;62421;51.412;5.432;2022-10-31T07:22:56;101858.47;;;9.21;100.00
74065;BME280;62421;51.412;5.432;2022-10-31T07:25:22;101862.00;;;9.22;100.00
74065;BME280;62421;51.412;5.432;2022-10-31T07:27:48;101865.47;;;9.24;100.00
74065;BME280;62421;51.412;5.432;2022-10-31T07:30:13;101870.72;;;9.27;100.00
74065;BME280;62421;51.412;5.432;2022-10-31T07:32:47;101871.56;;;9.28;100.00
74065;BME280;62421;51.412;5.432;2022-10-31T07:35:18;101872.38;;;9.30;100.00
74065;BME280;62421;51.412;5.432;2022-10-31T07:37:44;101861.66;;;9.30;100.00
74065;BME280;62421;51.412;5.432;2022-10-31T07:40:10;101868.72;;;9.31;100.00
74065;BME280;62421;51.412;5.432;2022-10-31T07:42:38;101874.94;;;9.31;100.00
74065;BME280;62421;51.412;5.432;2022-10-31T07:45:06;101864.09;;;9.34;100.00
74065;BME280;62421;51.412;5.432;2022-10-31T07:47:51;101870.25;;;9.36;100.00
74065;BME280;62421;51.412;5.432;2022-10-31T07:50:25;101866.38;;;9.42;100.00
74065;BME280;62421;51.412;5.432;2022-10-31T07:53:05;101874.31;;;9.45;100.00
74065;BME280;62421;51.412;5.432;2022-10-31T07:55:31;101876.91;;;9.47;100.00
74065;BME280;62421;51.412;5.432;2022-10-31T07:57:58;101874.00;;;9.51;100.00
74065;BME280;62421;51.412;5.432;2022-10-31T08:00:24;101884.56;;;9.54;100.00
74065;BME280;62421;51.412;5.432;2022-10-31T08:02:57;101879.94;;;9.58;100.00
74065;BME280;62421;51.412;5.432;2022-10-31T08:05:23;101892.25;;;9.62;100.00
74065;BME280;62421;51.412;5.432;2022-10-31T08:07:48;101885.69;;;9.68;100.00
74065;BME280;62421;51.412;5.432;2022-10-31T08:10:13;101889.66;;;9.78;100.00
74065;BME280;62421;51.412;5.432;2022-10-31T08:12:39;101876.56;;;9.89;100.00
74065;BME280;62421;51.412;5.432;2022-10-31T08:15:04;101876.00;;;10.00;100.00
74065;BME280;62421;51.412;5.432;2022-10-31T08:17:30;101867.03;;;10.18;100.00
74065;BME280;62421;51.412;5.432;2022-10-31T08:19:55;101857.78;;;10.41;100.00
74065;BME280;62421;51.412;5.432;2022-10-31T08:22:20;101873.44;;;10.66;100.00
74065;BME280;62421;51.412;5.432;2022-10-31T08:24:46;101878.09;;;10.96;100.00
74065;BME280;62421;51.412;5.432;2022-10-31T08:27:11;101874.66;;;11.26;100.00
74065;BME280;62421;51.412;5.432;2022-10-31T08:29:36;101870.66;;;11.49;100.00
74065;BME280;62421;51.412;5.432;2022-10-31T08:32:02;101861.50;;;11.67;100.00
74065;BME280;62421;51.412;5.432;2022-10-31T08:34:27;101858.94;;;11.80;100.00
74065;BME280;62421;51.412;5.432;2022-10-31T08:36:52;101839.84;;;11.85;100.00
74065;BME280;62421;51.412;5.432;2022-10-31T08:39:17;101830.25;;;11.81;100.00
74065;BME280;62421;51.412;5.432;2022-10-31T08:41:43;101825.22;;;11.75;100.00
74065;BME280;62421;51.412;5.432;2022-10-31T08:44:08;101813.97;;;11.68;100.00
74065;BME280;62421;51.412;5.432;2022-10-31T08:46:33;101818.66;;;11.64;100.00
74065;BME280;62421;51.412;5.432;2022-10-31T08:48:59;101827.78;;;11.62;100.00
74065;BME280;62421;51.412;5.432;2022-10-31T08:51:24;101838.63;;;11.60;100.00
74065;BME280;62421;51.412;5.432;2022-10-31T08:53:50;101844.00;;;11.60;100.00
74065;BME280;62421;51.412;5.432;2022-10-31T08:56:15;101830.47;;;11.62;100.00
74065;BME280;62421;51.412;5.432;2022-10-31T08:58:40;101828.72;;;11.61;100.00
74065;BME280;62421;51.412;5.432;2022-10-31T09:01:06;101816.13;;;11.61;100.00
74065;BME280;62421;51.412;5.432;2022-10-31T09:03:31;101826.63;;;11.66;100.00
74065;BME280;62421;51.412;5.432;2022-10-31T09:06:02;101838.75;;;11.73;100.00
74065;BME280;62421;51.412;5.432;2022-10-31T09:08:32;101848.28;;;11.95;100.00
74065;BME280;62421;51.412;5.432;2022-10-31T09:10:58;101860.34;;;12.18;100.00
74065;BME280;62421;51.412;5.432;2022-10-31T09:13:24;101842.19;;;12.36;100.00
74065;BME280;62421;51.412;5.432;2022-10-31T09:15:50;101824.38;;;12.47;100.00
74065;BME280;62421;51.412;5.432;2022-10-31T09:18:18;101805.91;;;12.56;100.00
74065;BME280;62421;51.412;5.432;2022-10-31T09:20:45;101801.22;;;12.59;100.00
74065;BME280;62421;51.412;5.432;2022-10-31T09:23:13;101818.16;;;12.61;100.00
74065;BME280;62421;51.412;5.432;2022-10-31T09:25:39;101804.47;;;12.64;100.00
74065;BME280;62421;51.412;5.432;2022-10-31T09:28:06;101790.59;;;12.70;100.00
74065;BME280;62421;51.412;5.432;2022-10-31T09:30:33;101777.03;;;12.72;100.00
74065;BME280;62421;51.412;5.432;2022-10-31T09:33:04;101765.50;;;12.70;100.00
74065;BME280;62421;51.412;5.432;2022-10-31T09:35:30;101758.34;;;12.69;100.00
74065;BME280;62421;51.412;5.432;2022-10-31T09:37:59;101754.16;;;12.65;100.00
74065;BME280;62421;51.412;5.432;2022-10-31T09:40:32;101758.78;;;12.63;100.00
74065;BME280;62421;51.412;5.432;2022-10-31T09:48:40;101778.41;;;12.65;100.00
74065;BME280;62421;51.412;5.432;2022-10-31T09:53:56;101772.50;;;12.73;100.00
74065;BME280;62421;51.412;5.432;2022-10-31T09:56:25;101757.66;;;12.80;100.00
74065;BME280;62421;51.412;5.432;2022-10-31T09:58:56;101764.50;;;12.85;100.00
74065;BME280;62421;51.412;5.432;2022-10-31T10:01:38;101754.00;;;12.95;100.00
74065;BME280;62421;51.412;5.432;2022-10-31T10:13:20;101733.72;;;13.57;100.00
74065;BME280;62421;51.412;5.432;2022-10-31T10:21:39;101719.91;;;14.00;100.00
74065;BME280;62421;51.412;5.432;2022-10-31T10:32:29;101708.25;;;14.12;100.00
74065;BME280;62421;51.412;5.432;2022-10-31T10:35:01;101706.97;;;14.18;100.00
74065;BME280;62421;51.412;5.432;2022-10-31T10:37:36;101712.25;;;14.19;100.00
74065;BME280;62421;51.412;5.432;2022-10-31T10:40:13;101716.88;;;14.17;100.00
74065;BME280;62421;51.412;5.432;2022-10-31T10:42:39;101707.50;;;14.23;100.00
74065;BME280;62421;51.412;5.432;2022-10-31T10:45:23;101707.16;;;14.27;100.00
74065;BME280;62421;51.412;5.432;2022-10-31T10:48:14;101706.06;;;14.30;100.00
74065;BME280;62421;51.412;5.432;2022-10-31T10:50:48;101704.97;;;14.32;100.00
74065;BME280;62421;51.412;5.432;2022-10-31T10:56:10;101705.19;;;14.42;100.00
74065;BME280;62421;51.412;5.432;2022-10-31T10:58:39;101707.53;;;14.47;100.00
74065;BME280;62421;51.412;5.432;2022-10-31T11:01:11;101702.69;;;14.52;100.00
74065;BME280;62421;51.412;5.432;2022-10-31T11:03:37;101697.81;;;14.57;100.00
74065;BME280;62421;51.412;5.432;2022-10-31T11:06:02;101694.88;;;14.60;100.00
74065;BME280;62421;51.412;5.432;2022-10-31T11:08:30;101700.84;;;14.65;100.00
74065;BME280;62421;51.412;5.432;2022-10-31T11:11:14;101701.34;;;14.70;100.00
74065;BME280;62421;51.412;5.432;2022-10-31T11:13:46;101694.00;;;14.72;100.00
74065;BME280;62421;51.412;5.432;2022-10-31T11:16:15;101680.13;;;14.77;100.00
74065;BME280;62421;51.412;5.432;2022-10-31T11:18:52;101659.13;;;14.81;100.00
74065;BME280;62421;51.412;5.432;2022-10-31T11:21:25;101646.25;;;14.84;100.00
74065;BME280;62421;51.412;5.432;2022-10-31T11:26:39;101640.25;;;14.92;100.00
74065;BME280;62421;51.412;5.432;2022-10-31T11:29:12;101645.69;;;15.03;100.00
74065;BME280;62421;51.412;5.432;2022-10-31T11:31:39;101633.59;;;15.20;100.00
74065;BME280;62421;51.412;5.432;2022-10-31T11:34:12;101626.38;;;15.32;100.00
74065;BME280;62421;51.412;5.432;2022-10-31T11:36:42;101619.41;;;15.41;100.00
74065;BME280;62421;51.412;5.432;2022-10-31T11:39:22;101612.50;;;15.48;100.00
74065;BME280;62421;51.412;5.432;2022-10-31T11:41:51;101597.50;;;15.55;100.00
74065;BME280;62421;51.412;5.432;2022-10-31T11:46:49;101595.19;;;15.62;100.00
74065;BME280;62421;51.412;5.432;2022-10-31T11:49:20;101595.03;;;15.63;100.00
74065;BME280;62421;51.412;5.432;2022-10-31T11:51:50;101585.81;;;15.66;100.00
74065;BME280;62421;51.412;5.432;2022-10-31T11:54:23;101582.66;;;15.72;100.00
74065;BME280;62421;51.412;5.432;2022-10-31T11:56:50;101566.63;;;15.69;100.00
74065;BME280;62421;51.412;5.432;2022-10-31T11:59:18;101564.53;;;15.61;100.00
74065;BME280;62421;51.412;5.432;2022-10-31T12:01:48;101573.50;;;15.50;100.00
74065;BME280;62421;51.412;5.432;2022-10-31T12:04:15;101564.28;;;15.42;100.00
74065;BME280;62421;51.412;5.432;2022-10-31T12:06:43;101556.16;;;15.30;100.00
74065;BME280;62421;51.412;5.432;2022-10-31T12:09:22;101544.22;;;15.22;100.00
74065;BME280;62421;51.412;5.432;2022-10-31T12:14:50;101529.56;;;15.24;100.00
74065;BME280;62421;51.412;5.432;2022-10-31T12:17:26;101515.19;;;15.35;100.00
74065;BME280;62421;51.412;5.432;2022-10-31T12:20:16;101523.44;;;15.56;100.00
74065;BME280;62421;51.412;5.432;2022-10-31T12:26:14;101514.22;;;15.92;100.00
74065;BME280;62421;51.412;5.432;2022-10-31T12:28:56;101511.09;;;16.08;99.87
74065;BME280;62421;51.412;5.432;2022-10-31T12:31:51;101509.47;;;16.17;99.36
74065;BME280;62421;51.412;5.432;2022-10-31T12:37:13;101481.41;;;16.18;97.27
74065;BME280;62421;51.412;5.432;2022-10-31T12:39:54;101468.34;;;16.12;97.53
74065;BME280;62421;51.412;5.432;2022-10-31T12:42:57;101452.72;;;16.04;99.17
74065;BME280;62421;51.412;5.432;2022-10-31T12:46:03;101451.53;;;15.97;98.87
74065;BME280;62421;51.412;5.432;2022-10-31T12:51:49;101431.88;;;15.84;99.56
74065;BME280;62421;51.412;5.432;2022-10-31T12:54:29;101426.34;;;15.74;97.60
74065;BME280;62421;51.412;5.432;2022-10-31T12:59:43;101424.41;;;15.53;97.36
74065;BME280;62421;51.412;5.432;2022-10-31T13:02:20;101415.06;;;15.46;98.34
74065;BME280;62421;51.412;5.432;2022-10-31T13:04:51;101412.63;;;15.43;98.81
74065;BME280;62421;51.412;5.432;2022-10-31T13:10:06;101400.78;;;15.44;99.42
74065;BME280;62421;51.412;5.432;2022-10-31T13:12:34;101396.25;;;15.45;96.86
74065;BME280;62421;51.412;5.432;2022-10-31T13:15:10;101390.84;;;15.45;97.33
74065;BME280;62421;51.412;5.432;2022-10-31T13:17:41;101380.25;;;15.42;96.22
74065;BME280;62421;51.412;5.432;2022-10-31T13:22:42;101372.53;;;15.37;96.79
74065;BME280;62421;51.412;5.432;2022-10-31T13:27:56;101355.91;;;15.42;99.48
74065;BME280;62421;51.412;5.432;2022-10-31T13:30:26;101346.66;;;15.44;96.12
74065;BME280;62421;51.412;5.432;2022-10-31T13:33:03;101344.97;;;15.43;95.97
74065;BME280;62421;51.412;5.432;2022-10-31T13:35:54;101347.78;;;15.42;97.78
74065;BME280;62421;51.412;5.432;2022-10-31T13:38:27;101326.53;;;15.37;96.02
74065;BME280;62421;51.412;5.432;2022-10-31T13:41:05;101322.22;;;15.34;96.26
74065;BME280;62421;51.412;5.432;2022-10-31T13:46:38;101313.00;;;15.37;95.70
74065;BME280;62421;51.412;5.432;2022-10-31T13:54:46;101308.50;;;15.15;95.95
74065;BME280;62421;51.412;5.432;2022-10-31T13:57:22;101307.28;;;15.08;96.83
74065;BME280;62421;51.412;5.432;2022-10-31T13:59:56;101297.72;;;15.04;96.62
74065;BME280;62421;51.412;5.432;2022-10-31T14:02:27;101297.34;;;15.08;96.62
74065;BME280;62421;51.412;5.432;2022-10-31T14:04:59;101290.88;;;15.21;96.59
74065;BME280;62421;51.412;5.432;2022-10-31T14:07:26;101285.31;;;15.33;95.24
74065;BME280;62421;51.412;5.432;2022-10-31T14:10:19;101290.56;;;15.46;96.83
74065;BME280;62421;51.412;5.432;2022-10-31T14:12:46;101279.84;;;15.56;94.87
74065;BME280;62421;51.412;5.432;2022-10-31T14:15:16;101281.88;;;15.64;94.28
74065;BME280;62421;51.412;5.432;2022-10-31T14:17:55;101293.09;;;15.70;94.13
74065;BME280;62421;51.412;5.432;2022-10-31T14:20:40;101282.75;;;15.75;95.46
74065;BME280;62421;51.412;5.432;2022-10-31T14:25:53;101272.53;;;15.79;92.34
74065;BME280;62421;51.412;5.432;2022-10-31T14:28:32;101270.34;;;15.73;93.45
74065;BME280;62421;51.412;5.432;2022-10-31T14:30:59;101275.03;;;15.60;92.07
74065;BME280;62421;51.412;5.432;2022-10-31T14:33:27;101260.81;;;15.46;92.04
74065;BME280;62421;51.412;5.432;2022-10-31T14:36:16;101254.59;;;15.34;94.55
74065;BME280;62421;51.412;5.432;2022-10-31T14:41:18;101248.84;;;15.28;94.17
74065;BME280;62421;51.412;5.432;2022-10-31T14:51:47;101226.44;;;15.58;93.52